Time;durP1;ratioP1;P1;durP2;ratioP2;P2;SDS_P1;SDS_P2;PMS_P1;PMS_P2;Temp;Humidity;BMP_temperature;BMP_pressure;BME280_temperature;BME280_humidity;BME280_pressure;Samples;Min_cycle;Max_cycle;Signal;HPM_P1;HPM_P2
2021/11/17 02:26:56;;;;;;;3.83;2.63;;;;;;;4.95;52.21;100508.75;3433174;28;20030;-73
2021/11/17 02:28:43;;;;;;;3.72;2.42;;;;;;;5.00;52.31;100506.53;3441576;28;20049;-71
2021/11/17 02:30:26;;;;;;;3.85;3.00;;;;;;;5.03;52.25;100505.44;3442093;28;20042;-72
2021/11/17 02:32:19;;;;;;;5.03;2.85;;;;;;;5.07;52.33;100509.47;3427830;28;20090;-72
2021/11/17 02:34:45;;;;;;;3.92;2.80;;;;;;;5.12;52.22;100509.91;3440943;28;20141;-73
2021/11/17 02:36:36;;;;;;;5.38;3.35;;;;;;;5.09;52.04;100507.53;3435957;28;20081;-73
2021/11/17 02:38:16;;;;;;;2.92;2.28;;;;;;;5.08;51.94;100503.22;3443734;28;20054;-74
2021/11/17 02:40:08;;;;;;;2.47;2.13;;;;;;;5.09;52.34;100496.97;3455626;28;20339;-71
2021/11/17 02:42:00;;;;;;;4.20;2.78;;;;;;;5.07;52.17;100498.91;3455545;28;20046;-72
2021/11/17 02:43:40;;;;;;;3.97;3.45;;;;;;;5.08;52.20;100495.28;3441792;28;20046;-72
2021/11/17 02:45:37;;;;;;;4.57;2.70;;;;;;;5.11;52.39;100500.31;3441922;28;20049;-73
2021/11/17 02:47:33;;;;;;;2.53;2.28;;;;;;;5.10;52.25;100497.81;3443331;28;20493;-72
2021/11/17 02:49:41;;;;;;;4.35;3.08;;;;;;;5.15;52.30;100496.41;3453696;28;20509;-72
2021/11/17 02:51:31;;;;;;;4.07;3.03;;;;;;;5.11;52.09;100497.69;3455329;28;20046;-72
2021/11/17 02:53:22;;;;;;;3.47;2.58;;;;;;;5.14;52.19;100494.75;3445596;28;20502;-73
2021/11/17 02:55:22;;;;;;;4.03;2.72;;;;;;;5.18;52.12;100496.13;3441846;28;20062;-73
2021/11/17 02:57:18;;;;;;;4.13;2.65;;;;;;;5.16;52.01;100497.22;3441918;28;20046;-72
2021/11/17 02:59:11;;;;;;;4.07;3.10;;;;;;;5.14;51.94;100502.69;3442679;28;20053;-72
2021/11/17 03:01:13;;;;;;;3.55;3.05;;;;;;;5.16;52.15;100498.09;3446107;28;20073;-73
2021/11/17 03:02:56;;;;;;;3.30;2.92;;;;;;;5.12;52.08;100498.50;3442093;28;20053;-74
2021/11/17 03:04:47;;;;;;;3.22;2.35;;;;;;;5.11;52.02;100495.03;3441708;28;20043;-73
2021/11/17 03:06:59;;;;;;;3.17;2.88;;;;;;;5.12;52.12;100490.56;3441615;28;20490;-72
2021/11/17 03:08:57;;;;;;;3.63;2.60;;;;;;;5.10;52.01;100497.81;3445682;28;20123;-73
2021/11/17 03:11:06;;;;;;;3.42;3.08;;;;;;;5.04;52.12;100483.34;3455265;28;20049;-73
2021/11/17 03:13:11;;;;;;;3.80;2.75;;;;;;;5.00;52.19;100492.50;3446227;28;20149;-72
2021/11/17 03:15:05;;;;;;;2.20;2.00;;;;;;;4.92;52.11;100495.00;3427130;28;20050;-72
2021/11/17 03:16:58;;;;;;;3.50;2.97;;;;;;;4.89;52.27;100492.66;3440548;28;20140;-72
2021/11/17 03:18:57;;;;;;;2.90;2.30;;;;;;;4.91;52.38;100494.19;3445897;28;20038;-73
2021/11/17 03:20:43;;;;;;;3.53;2.75;;;;;;;4.91;52.40;100488.06;3432520;28;20196;-74
2021/11/17 03:22:42;;;;;;;4.20;2.50;;;;;;;4.94;52.48;100487.78;3439250;28;20414;-74
2021/11/17 03:24:49;;;;;;;4.63;2.50;;;;;;;5.01;52.31;100483.63;3426891;28;20043;-73
2021/11/17 03:26:39;;;;;;;2.83;2.50;;;;;;;4.95;52.17;100478.88;3441356;28;20513;-72
2021/11/17 03:28:28;;;;;;;2.58;2.30;;;;;;;4.96;52.14;100476.13;3441439;28;20490;-72
2021/11/17 03:30:18;;;;;;;3.10;2.75;;;;;;;4.98;52.21;100474.16;3441660;28;20129;-72
2021/11/17 03:32:29;;;;;;;4.63;3.22;;;;;;;5.03;52.29;100473.72;3441014;28;20046;-73
2021/11/17 03:34:45;;;;;;;3.63;2.58;;;;;;;4.99;52.21;100475.84;3441456;28;20481;-73
2021/11/17 03:36:51;;;;;;;5.22;2.58;;;;;;;4.96;52.14;100480.56;3435647;28;20050;-72
2021/11/17 03:38:34;;;;;;;3.00;2.50;;;;;;;4.92;52.10;100484.44;3449040;28;20042;-73
2021/11/17 03:40:36;;;;;;;3.42;3.00;;;;;;;4.94;52.49;100483.34;3454254;28;20383;-73
2021/11/17 03:43:08;;;;;;;3.13;2.83;;;;;;;4.99;52.35;100480.28;3449637;28;20502;-75
2021/11/17 03:44:49;;;;;;;7.60;3.38;;;;;;;4.96;52.03;100475.28;3399686;29;20050;-74
2021/11/17 03:46:41;;;;;;;3.30;2.63;;;;;;;4.92;52.25;100473.88;3399766;29;20468;-74
2021/11/17 03:48:41;;;;;;;;;;;;;;;5.01;51.86;100478.34;3399483;29;20088;-72
2021/11/17 03:50:56;;;;;;;5.57;2.72;;;;;;;4.95;52.05;100477.06;3412098;28;20332;-72
2021/11/17 03:52:59;;;;;;;4.18;2.53;;;;;;;4.94;52.07;100477.22;3438132;28;20042;-74
2021/11/17 03:55:15;;;;;;;3.60;3.00;;;;;;;4.97;52.06;100479.59;3441210;28;20386;-73
2021/11/17 03:57:25;;;;;;;4.00;2.70;;;;;;;4.96;52.06;100472.66;3441143;28;20659;-74
2021/11/17 03:59:09;;;;;;;5.43;2.55;;;;;;;4.99;52.00;100470.53;3430521;28;20079;-75
2021/11/17 04:00:55;;;;;;;2.33;2.13;;;;;;;5.01;52.07;100462.50;3454687;28;20034;-74
2021/11/17 04:02:36;;;;;;;4.78;2.70;;;;;;;5.03;51.87;100468.44;3447386;28;20050;-73
2021/11/17 04:04:38;;;;;;;3.85;2.25;;;;;;;5.08;51.91;100463.59;3440658;28;20473;-73
2021/11/17 04:07:00;;;;;;;10.15;2.83;;;;;;;5.09;51.99;100465.28;3440999;28;20145;-74
2021/11/17 04:09:03;;;;;;;2.50;2.30;;;;;;;5.09;51.74;100470.56;3439817;28;20460;-72
2021/11/17 04:11:14;;;;;;;3.60;3.30;;;;;;;5.03;51.80;100471.94;3427690;28;20045;-73
2021/11/17 04:13:13;;;;;;;5.50;3.05;;;;;;;5.01;51.71;100481.00;3427566;28;20055;-73
2021/11/17 04:15:14;;;;;;;2.47;2.22;;;;;;;5.07;52.11;100482.22;3427466;28;20046;-73
2021/11/17 04:17:01;;;;;;;2.17;1.90;;;;;;;5.03;52.21;100465.81;3430237;28;20037;-73
2021/11/17 04:18:59;;;;;;;2.55;2.35;;;;;;;5.01;52.11;100473.06;3426684;28;20057;-72
2021/11/17 04:20:58;;;;;;;1.98;1.77;;;;;;;4.99;51.92;100480.28;3452969;28;20041;-74
2021/11/17 04:22:58;;;;;;;4.43;3.08;;;;;;;4.99;51.89;100477.66;3439923;28;20125;-71
2021/11/17 04:24:50;;;;;;;4.57;2.58;;;;;;;4.96;51.85;100475.28;3454276;28;20030;-74
2021/11/17 04:26:49;;;;;;;2.50;2.10;;;;;;;4.97;51.77;100487.50;3449133;28;20703;-73
2021/11/17 04:28:51;;;;;;;3.40;2.60;;;;;;;4.95;51.81;100479.72;3441318;28;20077;-75
2021/11/17 04:30:59;;;;;;;3.42;2.88;;;;;;;4.98;52.06;100483.88;3453410;28;20033;-72
2021/11/17 04:33:01;;;;;;;3.05;2.30;;;;;;;5.01;51.89;100483.63;3454621;28;20045;-73
2021/11/17 04:34:55;;;;;;;3.40;2.78;;;;;;;4.99;51.77;100485.56;3454835;28;20049;-74
2021/11/17 04:36:48;;;;;;;2.95;2.58;;;;;;;4.97;51.72;100482.22;3450973;28;20042;-74
2021/11/17 04:38:31;;;;;;;4.20;2.20;;;;;;;4.95;51.71;100479.72;3433094;28;20057;-74
2021/11/17 04:40:35;;;;;;;3.95;2.40;;;;;;;4.94;51.84;100485.16;3442902;28;20046;-73
2021/11/17 04:42:32;;;;;;;3.97;2.53;;;;;;;4.97;51.79;100487.50;3440970;28;20058;-74
2021/11/17 04:44:38;;;;;;;4.25;2.00;;;;;;;4.99;51.85;100480.28;3441079;28;20042;-73
2021/11/17 04:46:47;;;;;;;3.22;1.80;;;;;;;4.98;51.92;100484.75;3436568;28;20055;-74
2021/11/17 04:48:50;;;;;;;3.15;2.63;;;;;;;4.97;51.61;100483.06;3441044;28;20038;-73
2021/11/17 04:50:52;;;;;;;2.42;2.22;;;;;;;4.96;51.90;100485.84;3442077;28;20082;-74
2021/11/17 04:52:54;;;;;;;4.75;2.90;;;;;;;4.95;51.73;100486.81;3441329;28;20042;-74
2021/11/17 04:54:47;;;;;;;3.50;2.38;;;;;;;4.91;51.88;100474.88;3453000;28;20552;-74
2021/11/17 04:56:30;;;;;;;3.70;2.40;;;;;;;4.90;51.83;100486.38;3452931;28;20057;-73
2021/11/17 04:58:27;;;;;;;5.30;3.45;;;;;;;4.92;51.93;100477.34;3428945;28;20058;-72
2021/11/17 05:00:24;;;;;;;2.08;1.90;;;;;;;4.90;51.79;100470.53;3442373;28;20121;-71
2021/11/17 05:02:05;;;;;;;11.77;2.47;;;;;;;4.91;51.87;100485.44;3456406;28;20464;-72
2021/11/17 05:04:17;;;;;;;4.65;2.63;;;;;;;4.90;51.64;100483.75;3456928;28;20092;-73
2021/11/17 05:06:20;;;;;;;3.03;2.58;;;;;;;4.95;51.64;100486.81;3413303;28;20046;-72
2021/11/17 05:08:19;;;;;;;2.60;2.33;;;;;;;4.98;51.81;100483.88;3456994;28;20137;-73
2021/11/17 05:10:14;;;;;;;3.40;2.10;;;;;;;4.96;51.85;100477.94;3452389;28;20034;-73
2021/11/17 05:12:22;;;;;;;4.50;3.42;;;;;;;5.02;51.87;100488.75;3456150;28;20072;-72
2021/11/17 05:14:12;;;;;;;3.22;2.78;;;;;;;5.00;51.71;100481.94;3457054;28;20074;-74
2021/11/17 05:16:08;;;;;;;3.50;2.40;;;;;;;4.98;51.69;100479.47;3455563;28;20048;-71
2021/11/17 05:18:01;;;;;;;3.72;3.05;;;;;;;4.96;51.62;100481.41;3428593;28;20045;-70
2021/11/17 05:19:47;;;;;;;;;;;;;;;5.04;51.51;100478.06;3442521;28;20497;-70
2021/11/17 05:21:43;;;;;;;2.50;2.30;;;;;;;4.95;51.63;100482.34;3429067;28;19968;-71
2021/11/17 05:23:36;;;;;;;3.80;2.90;;;;;;;4.93;51.77;100483.47;3442081;28;20046;-70
2021/11/17 05:25:42;;;;;;;3.13;2.58;;;;;;;4.94;51.77;100480.69;3442704;28;20453;-69
2021/11/17 05:27:51;;;;;;;3.50;2.70;;;;;;;4.89;51.80;100480.28;3441891;28;20145;-71
2021/11/17 05:29:51;;;;;;;3.03;2.42;;;;;;;4.94;51.90;100477.22;3442829;28;20049;-72
2021/11/17 05:31:39;;;;;;;2.78;2.10;;;;;;;4.91;51.99;100472.22;3451895;28;20099;-72
2021/11/17 05:33:31;;;;;;;3.97;3.58;;;;;;;4.91;51.91;100472.22;3456233;28;20066;-70
2021/11/17 05:35:36;;;;;;;4.88;2.90;;;;;;;4.95;51.86;100471.78;3456325;28;20046;-70
2021/11/17 05:37:51;;;;;;;3.47;3.15;;;;;;;4.95;51.86;100473.59;3454866;28;20054;-72
2021/11/17 05:39:44;;;;;;;4.43;2.88;;;;;;;4.89;52.05;100468.88;3455914;28;20045;-72
2021/11/17 05:41:43;;;;;;;3.08;2.42;;;;;;;4.88;51.86;100480.41;3444720;28;20078;-75
2021/11/17 05:43:36;;;;;;;4.95;4.55;;;;;;;4.82;52.07;100469.41;3442891;28;20046;-72
2021/11/17 05:45:38;;;;;;;5.22;3.08;;;;;;;4.82;52.09;100476.50;3442134;28;20046;-72
2021/11/17 05:47:34;;;;;;;8.35;2.42;;;;;;;4.82;51.99;100474.69;3414723;28;20051;-73
2021/11/17 05:49:30;;;;;;;3.78;2.47;;;;;;;4.81;52.09;100477.50;3428501;28;20078;-73
2021/11/17 05:51:11;;;;;;;2.55;2.33;;;;;;;4.81;51.99;100475.69;3441177;28;20501;-74
2021/11/17 05:52:57;;;;;;;5.07;2.47;;;;;;;4.88;52.40;100475.13;3442532;28;20129;-73
2021/11/17 05:54:53;;;;;;;3.05;2.55;;;;;;;4.96;52.57;100475.28;3442667;28;20038;-72
2021/11/17 05:57:07;;;;;;;3.17;2.85;;;;;;;5.01;52.34;100470.41;3441887;28;20172;-72
2021/11/17 05:59:00;;;;;;;3.63;2.30;;;;;;;4.99;52.10;100482.94;3441906;28;20042;-72
2021/11/17 06:00:59;;;;;;;3.63;2.95;;;;;;;4.99;52.13;100481.13;3450570;28;20053;-73
2021/11/17 06:03:10;;;;;;;3.78;2.72;;;;;;;5.03;52.08;100487.81;3456082;28;20045;-72
2021/11/17 06:04:50;;;;;;;9.82;3.35;;;;;;;4.98;51.93;100468.03;3441384;28;20071;-73
2021/11/17 06:06:36;;;;;;;2.25;1.83;;;;;;;5.00;52.01;100476.66;3451543;28;20041;-73
2021/11/17 06:08:17;;;;;;;6.47;2.33;;;;;;;5.02;51.97;100472.06;3442240;28;20038;-73
2021/11/17 06:10:34;;;;;;;3.35;2.50;;;;;;;5.08;51.98;100457.47;3450210;28;20417;-73
2021/11/17 06:12:16;;;;;;;3.50;2.55;;;;;;;5.07;51.79;100469.84;3374763;29;20064;-73
2021/11/17 06:13:58;;;;;;;4.18;2.25;;;;;;;5.05;51.92;100470.97;3387343;28;20059;-73
2021/11/17 06:15:42;;;;;;;6.95;2.92;;;;;;;5.05;51.79;100463.88;3432659;28;20425;-73
2021/11/17 06:17:24;;;;;;;2.85;2.28;;;;;;;5.06;51.99;100469.97;3439795;28;20042;-73
2021/11/17 06:19:05;;;;;;;6.10;3.03;;;;;;;5.05;51.78;100466.50;3442119;28;20477;-73
2021/11/17 06:20:46;;;;;;;13.40;3.58;;;;;;;5.01;51.78;100457.22;3437606;28;20045;-73
2021/11/17 06:22:30;;;;;;;10.77;3.47;;;;;;;5.08;51.91;100463.59;3441179;28;20414;-72
2021/11/17 06:24:12;;;;;;;5.10;3.13;;;;;;;5.10;51.87;100463.44;3442379;28;20046;-73
2021/11/17 06:25:55;;;;;;;6.47;3.30;;;;;;;5.12;51.85;100459.69;3442066;28;20130;-72
2021/11/17 06:27:37;;;;;;;;;;;;;;;5.26;51.61;100458.41;3443335;28;20042;-72
2021/11/17 06:29:29;;;;;;;5.03;2.25;;;;;;;5.22;51.59;100465.81;3441166;28;19928;-72
2021/11/17 06:31:10;;;;;;;8.63;3.28;;;;;;;5.19;51.56;100455.53;3445535;28;20204;-74
2021/11/17 06:32:52;;;;;;;5.53;2.95;;;;;;;5.17;51.49;100457.47;3435517;28;20043;-73
2021/11/17 06:34:36;;;;;;;5.30;2.55;;;;;;;5.15;51.54;100463.88;3441944;28;20054;-72
2021/11/17 06:36:17;;;;;;;3.55;2.83;;;;;;;5.13;51.61;100463.16;3442033;28;20157;-74
2021/11/17 06:37:58;;;;;;;5.50;3.33;;;;;;;5.13;51.51;100464.00;3427558;28;20070;-72
2021/11/17 06:39:42;;;;;;;11.77;3.38;;;;;;;5.13;51.65;100466.63;3439008;28;20046;-73
2021/11/17 06:41:23;;;;;;;15.38;3.40;;;;;;;5.13;51.65;100466.63;3434692;28;20161;-73
2021/11/17 06:43:05;;;;;;;4.00;2.53;;;;;;;5.13;51.84;100461.34;3442462;28;20107;-74
2021/11/17 06:44:46;;;;;;;6.43;2.75;;;;;;;5.15;51.78;100463.88;3427830;28;20112;-72
2021/11/17 06:46:27;;;;;;;4.05;2.75;;;;;;;5.16;51.75;100465.53;3439837;28;20395;-73
2021/11/17 06:48:09;;;;;;;6.43;3.55;;;;;;;5.14;51.61;100463.03;3446707;28;20144;-74
2021/11/17 06:49:53;;;;;;;8.10;3.38;;;;;;;5.13;51.60;100460.53;3435419;28;20038;-73
2021/11/17 06:51:33;;;;;;;5.07;3.13;;;;;;;5.11;51.62;100460.69;3440361;28;20049;-73
2021/11/17 06:53:15;;;;;;;6.28;2.90;;;;;;;5.11;51.22;100463.31;3441800;28;20042;-73
2021/11/17 06:54:56;;;;;;;6.93;3.75;;;;;;;5.13;51.61;100457.88;3450653;28;20128;-74
2021/11/17 06:56:36;;;;;;;11.00;4.13;;;;;;;5.13;51.67;100464.00;3422440;28;20042;-73
2021/11/17 06:58:19;;;;;;;10.93;3.88;;;;;;;5.14;51.57;100463.03;3421842;28;20054;-74
2021/11/17 07:00:01;;;;;;;6.10;3.58;;;;;;;5.14;51.53;100463.03;3447239;28;20042;-73
2021/11/17 07:01:41;;;;;;;6.30;2.78;;;;;;;5.14;51.39;100463.03;3435597;28;20111;-72
2021/11/17 07:03:24;;;;;;;7.20;3.22;;;;;;;5.14;51.50;100464.84;3439620;28;20059;-72
2021/11/17 07:05:06;;;;;;;8.70;3.40;;;;;;;5.11;51.64;100458.03;3427091;28;20043;-74
2021/11/17 07:06:48;;;;;;;9.85;3.55;;;;;;;5.12;51.59;100461.50;3436987;28;20461;-74
2021/11/17 07:08:29;;;;;;;6.68;3.30;;;;;;;5.14;51.72;100470.97;3428347;28;20046;-73
2021/11/17 07:10:12;;;;;;;7.60;3.83;;;;;;;5.15;51.57;100464.69;3428248;28;20053;-74
2021/11/17 07:11:54;;;;;;;8.68;5.28;;;;;;;5.15;51.56;100464.69;3429770;28;20053;-73
2021/11/17 07:13:34;;;;;;;7.72;3.92;;;;;;;5.17;51.44;100465.41;3441902;28;20050;-72
2021/11/17 07:15:15;;;;;;;9.40;3.30;;;;;;;5.17;51.52;100462.75;3439963;28;20473;-73
2021/11/17 07:16:57;;;;;;;8.10;3.58;;;;;;;5.19;51.52;100455.53;3441988;28;20066;-73
2021/11/17 07:18:39;;;;;;;5.95;3.97;;;;;;;5.21;51.45;100458.00;3441572;28;20042;-73
2021/11/17 07:20:20;;;;;;;12.27;3.53;;;;;;;5.25;51.49;100460.25;3453570;28;20147;-73
2021/11/17 07:22:03;;;;;;;7.00;3.60;;;;;;;5.29;51.41;100465.22;3454294;28;20106;-75
2021/11/17 07:23:44;;;;;;;5.20;4.07;;;;;;;5.29;51.43;100465.22;3456702;28;20046;-74
2021/11/17 07:25:25;;;;;;;6.07;3.92;;;;;;;5.32;51.36;100470.22;3442399;28;20023;-73
2021/11/17 07:27:08;;;;;;;9.07;4.05;;;;;;;5.33;51.37;100467.47;3450754;28;20034;-75
2021/11/17 07:28:49;;;;;;;6.03;4.00;;;;;;;5.35;51.33;100467.34;3455024;28;20038;-71
2021/11/17 07:30:36;;;;;;;12.15;3.75;;;;;;;5.37;51.36;100468.00;3444242;28;20045;-75
2021/11/17 07:32:17;;;;;;;7.68;3.25;;;;;;;5.36;51.29;100477.75;3438719;28;20137;-72
2021/11/17 07:33:58;;;;;;;7.18;3.85;;;;;;;5.37;51.31;100468.84;3441341;28;20039;-75
2021/11/17 07:35:45;;;;;;;7.82;6.03;;;;;;;5.35;51.18;100472.63;3433218;28;20034;-71
2021/11/17 07:37:26;;;;;;;7.43;5.38;;;;;;;5.35;51.28;100480.53;3426366;28;20035;-71
2021/11/17 07:39:08;;;;;;;9.93;5.53;;;;;;;5.32;51.20;100475.53;3438102;28;20117;-71
2021/11/17 07:40:51;;;;;;;10.40;4.75;;;;;;;5.30;51.02;100480.13;3431098;28;20062;-72
2021/11/17 07:42:32;;;;;;;10.95;4.72;;;;;;;5.31;51.04;100487.06;3437861;28;20035;-72
2021/11/17 07:44:16;;;;;;;10.65;4.43;;;;;;;5.29;51.13;100484.56;3441077;28;20038;-71
2021/11/17 07:45:57;;;;;;;6.70;3.53;;;;;;;5.28;51.22;100484.72;3441007;28;20093;-71
2021/11/17 07:47:38;;;;;;;9.13;3.75;;;;;;;5.18;51.13;100469.69;3440301;28;20147;-71
2021/11/17 07:49:22;;;;;;;6.85;3.72;;;;;;;5.21;51.20;100490.59;3440495;28;20517;-71
2021/11/17 07:51:03;;;;;;;3.78;3.15;;;;;;;5.21;51.42;100495.00;3440477;28;20042;-71
2021/11/17 07:52:43;;;;;;;5.70;3.42;;;;;;;5.22;51.26;100489.59;3440056;28;20433;-71
2021/11/17 07:54:26;;;;;;;8.90;3.97;;;;;;;5.22;51.50;100486.94;3440140;28;20042;-70
2021/11/17 07:56:07;;;;;;;3.97;3.25;;;;;;;5.26;51.28;100484.84;3441143;28;20042;-71
2021/11/17 07:57:50;;;;;;;5.18;3.67;;;;;;;5.29;51.48;100496.94;3437255;28;20049;-71
2021/11/17 07:59:31;;;;;;;6.93;3.38;;;;;;;5.32;51.58;100486.94;3415148;28;20130;-72
2021/11/17 08:01:13;;;;;;;4.83;3.20;;;;;;;5.34;51.61;100489.44;3420195;28;20043;-74
2021/11/17 08:02:54;;;;;;;;;;;;;;;5.48;51.38;100481.06;3420898;28;20038;-71
2021/11/17 08:04:35;;;;;;;3.80;2.75;;;;;;;5.39;51.42;100477.47;3422536;28;20013;-73
2021/11/17 08:06:18;;;;;;;5.22;3.17;;;;;;;5.40;51.65;100479.16;3423679;28;20047;-74
2021/11/17 08:08:01;;;;;;;5.47;3.10;;;;;;;5.41;51.66;100480.78;3415671;28;20121;-73
2021/11/17 08:09:43;;;;;;;9.05;3.85;;;;;;;5.41;51.60;100480.78;3424683;28;20387;-73
2021/11/17 08:11:24;;;;;;;12.20;3.80;;;;;;;5.42;51.40;100478.97;3437771;28;20137;-73
2021/11/17 08:13:05;;;;;;;4.30;3.70;;;;;;;5.40;51.38;100479.16;3426637;28;20496;-72
2021/11/17 08:14:46;;;;;;;8.82;3.50;;;;;;;5.42;51.37;100482.50;3440529;28;20298;-72
2021/11/17 08:16:27;;;;;;;6.70;3.17;;;;;;;5.44;51.34;100482.31;3441194;28;20045;-73
2021/11/17 08:18:07;;;;;;;4.95;3.00;;;;;;;5.43;51.43;100476.22;3439716;28;20038;-73
2021/11/17 08:19:48;;;;;;;3.78;3.17;;;;;;;5.46;51.44;100475.09;3425015;28;20521;-73
2021/11/17 08:21:29;;;;;;;5.95;3.00;;;;;;;5.48;51.33;100489.00;3437484;28;20049;-72
2021/11/17 08:23:10;;;;;;;4.82;3.00;;;;;;;5.51;51.46;100480.78;3437647;28;20039;-73
2021/11/17 08:24:51;;;;;;;7.45;2.85;;;;;;;5.56;51.50;100483.84;3439069;28;20493;-74
2021/11/17 08:26:31;;;;;;;4.75;2.72;;;;;;;5.59;51.48;100483.56;3441468;28;20180;-72
2021/11/17 08:28:13;;;;;;;3.67;2.95;;;;;;;5.60;51.34;100482.59;3441641;28;20042;-72
2021/11/17 08:29:57;;;;;;;5.43;2.95;;;;;;;5.60;51.09;100477.31;3442833;28;20034;-73
2021/11/17 08:31:37;;;;;;;6.55;2.58;;;;;;;5.58;51.11;100476.59;3443138;28;20035;-73
2021/11/17 08:33:18;;;;;;;4.68;2.78;;;;;;;5.58;50.94;100476.59;3439359;28;20612;-73
2021/11/17 08:35:00;;;;;;;4.80;3.47;;;;;;;5.55;50.86;100478.69;3443676;28;20039;-73
2021/11/17 08:36:40;;;;;;;15.03;4.70;;;;;;;5.58;50.94;100476.59;3443034;28;20030;-74
2021/11/17 08:38:23;;;;;;;8.15;3.70;;;;;;;5.58;50.83;100476.59;3442658;28;20297;-74
2021/11/17 08:40:16;;;;;;;3.70;2.78;;;;;;;5.62;50.71;100480.63;3442699;28;20042;-72
2021/11/17 08:41:57;;;;;;;4.97;2.13;;;;;;;5.61;50.81;100488.72;3443304;28;20066;-73
2021/11/17 08:43:39;;;;;;;7.70;2.40;;;;;;;5.60;50.80;100477.31;3430333;28;20046;-72
2021/11/17 08:45:21;;;;;;;4.13;2.25;;;;;;;5.61;50.69;100478.97;3442745;28;20457;-73
2021/11/17 08:47:04;;;;;;;9.55;2.55;;;;;;;5.65;50.65;100477.72;3441716;28;20045;-73
2021/11/17 08:48:45;;;;;;;4.28;2.90;;;;;;;5.68;50.59;100482.72;3442776;28;20096;-73
2021/11/17 08:50:29;;;;;;;6.22;2.38;;;;;;;5.72;50.70;100485.88;3448994;28;20491;-72
2021/11/17 08:52:11;;;;;;;4.97;2.72;;;;;;;5.73;50.58;100484.94;3452694;28;20053;-71
2021/11/17 08:53:52;;;;;;;3.08;2.33;;;;;;;5.76;50.58;100478.50;3453131;28;20426;-73
2021/11/17 08:55:36;;;;;;;3.78;2.40;;;;;;;5.77;50.32;100480.16;3447449;28;20136;-72
2021/11/17 08:57:19;;;;;;;4.97;2.90;;;;;;;5.76;50.32;100474.06;3435248;28;20429;-72
2021/11/17 08:59:01;;;;;;;;;;;;;;;5.90;50.19;100476.22;3442331;28;20065;-72
2021/11/17 09:00:43;;;;;;;5.82;4.05;;;;;;;5.84;50.09;100476.81;3442035;28;19928;-74
2021/11/17 09:02:24;;;;;;;4.60;3.47;;;;;;;5.85;50.13;100478.47;3441888;28;20046;-72
2021/11/17 09:04:08;;;;;;;11.23;3.85;;;;;;;5.87;50.26;100487.09;3442080;28;20502;-73
2021/11/17 09:05:52;;;;;;;4.63;2.92;;;;;;;5.92;50.41;100481.38;3438886;28;20125;-74
2021/11/17 09:07:33;;;;;;;4.13;2.72;;;;;;;5.94;50.33;100474.16;3441804;28;20042;-75
2021/11/17 09:09:14;;;;;;;4.95;2.78;;;;;;;5.97;50.02;100479.16;3440749;28;20109;-74
2021/11/17 09:11:00;;;;;;;4.43;2.88;;;;;;;5.99;50.10;100477.22;3443820;28;20053;-73
2021/11/17 09:12:42;;;;;;;9.45;3.22;;;;;;;6.00;50.04;100484.16;3443632;28;20054;-74
2021/11/17 09:14:22;;;;;;;3.15;2.42;;;;;;;6.03;50.01;100477.75;3443676;28;20482;-73
2021/11/17 09:16:03;;;;;;;10.27;4.97;;;;;;;6.02;50.01;100484.03;3442215;28;20038;-73
2021/11/17 09:17:44;;;;;;;6.35;2.75;;;;;;;6.02;50.14;100484.84;3443797;28;20040;-73
2021/11/17 09:19:25;;;;;;;4.95;2.45;;;;;;;6.06;50.06;100482.75;3443513;28;20101;-74
2021/11/17 09:21:10;;;;;;;6.53;2.58;;;;;;;6.07;49.93;100487.91;3428191;28;20046;-71
2021/11/17 09:22:51;;;;;;;7.82;2.88;;;;;;;6.08;49.95;100478.97;3439648;28;20034;-72
2021/11/17 09:24:32;;;;;;;5.05;3.03;;;;;;;6.09;49.85;100472.72;3454742;28;20132;-74
2021/11/17 09:26:14;;;;;;;9.75;3.10;;;;;;;6.10;49.85;100479.66;3445305;28;20039;-74
2021/11/17 09:27:56;;;;;;;6.05;3.25;;;;;;;6.13;49.83;100475.88;3441967;28;20035;-73
2021/11/17 09:29:36;;;;;;;6.28;3.28;;;;;;;6.18;49.81;100480.75;3442107;28;20441;-75
2021/11/17 09:31:17;;;;;;;8.30;3.17;;;;;;;6.19;49.77;100474.47;3441904;28;20109;-76
2021/11/17 09:33:00;;;;;;;7.93;3.38;;;;;;;6.21;49.83;100478.63;3442631;28;20042;-73
2021/11/17 09:34:41;;;;;;;10.32;3.28;;;;;;;6.23;49.80;100470.56;3440987;28;20691;-76
2021/11/17 09:36:25;;;;;;;10.68;3.13;;;;;;;6.23;49.69;100475.84;3451750;28;20046;-74
2021/11/17 09:38:08;;;;;;;5.38;3.17;;;;;;;6.23;49.75;100476.69;3444127;28;20042;-73
2021/11/17 09:39:52;;;;;;;5.82;3.20;;;;;;;6.25;49.79;100471.25;3429740;28;20039;-75
2021/11/17 09:41:39;;;;;;;4.75;2.92;;;;;;;6.24;49.80;100464.28;3435388;28;20429;-76
2021/11/17 09:43:25;;;;;;;7.22;2.88;;;;;;;6.25;49.89;100473.91;3424955;28;20053;-75
2021/11/17 09:45:08;;;;;;;5.88;3.33;;;;;;;6.27;50.17;100466.63;3434783;28;20039;-76
2021/11/17 09:46:48;;;;;;;9.52;3.45;;;;;;;6.29;50.07;100462.84;3438466;28;20035;-77
2021/11/17 09:48:35;;;;;;;4.70;2.55;;;;;;;6.33;50.12;100469.53;3439018;28;20042;-73
2021/11/17 09:50:54;;;;;;;11.10;3.50;;;;;;;6.36;50.18;100463.09;3424951;28;20081;-75
2021/11/17 09:52:47;;;;;;;7.05;2.70;;;;;;;6.38;50.01;100461.13;3427527;28;20044;-75
2021/11/17 09:54:46;;;;;;;;;;;;;;;6.52;49.92;100457.97;3438057;28;20093;-75
2021/11/17 09:56:41;;;;;;;3.90;3.08;;;;;;;6.47;49.95;100457.59;3422370;28;19991;-75
2021/11/17 09:58:29;;;;;;;5.50;2.90;;;;;;;6.43;49.95;100460.66;3426039;28;20170;-75
2021/11/17 10:00:24;;;;;;;6.32;3.10;;;;;;;6.45;50.29;100451.59;3419108;28;20106;-75
2021/11/17 10:02:10;;;;;;;7.03;3.78;;;;;;;6.46;50.29;100447.97;3435915;28;20545;-74
2021/11/17 10:04:46;;;;;;;5.68;3.53;;;;;;;6.51;50.15;100448.38;3412661;28;20038;-74
2021/11/17 10:14:21;;;;;;;5.53;3.85;;;;;;;6.47;49.90;100440.88;3437093;28;20034;-75
2021/11/17 10:16:02;;;;;;;6.13;3.20;;;;;;;6.44;49.80;100444.66;3439542;28;20038;-74
2021/11/17 10:17:56;;;;;;;3.00;2.45;;;;;;;6.50;50.08;100448.50;3436699;28;20041;-73
2021/11/17 10:19:36;;;;;;;4.75;3.55;;;;;;;6.48;49.96;100438.09;3435685;28;20043;-75
2021/11/17 10:21:23;;;;;;;5.13;3.38;;;;;;;6.49;49.89;100439.75;3436403;28;20038;-75
2021/11/17 10:23:08;;;;;;;7.07;3.30;;;;;;;6.49;49.86;100438.91;3442149;28;20042;-76
2021/11/17 10:24:54;;;;;;;8.55;3.55;;;;;;;6.49;49.90;100439.75;3432605;28;20498;-74
2021/11/17 10:26:48;;;;;;;9.88;3.85;;;;;;;6.49;49.78;100442.38;3412534;28;20046;-75
2021/11/17 10:28:31;;;;;;;4.97;2.92;;;;;;;6.49;49.78;100442.38;3438455;28;20102;-74
2021/11/17 10:30:21;;;;;;;4.88;2.88;;;;;;;6.50;49.84;100440.56;3435968;28;20054;-75
2021/11/17 10:32:02;;;;;;;8.77;3.72;;;;;;;6.51;49.81;100435.13;3434857;28;20034;-74
2021/11/17 10:34:06;;;;;;;7.32;3.92;;;;;;;6.58;49.78;100432.69;3425058;28;20050;-77
2021/11/17 10:36:04;;;;;;;7.43;3.53;;;;;;;6.60;49.81;100430.75;3427532;28;20046;-76
2021/11/17 10:38:01;;;;;;;5.05;3.38;;;;;;;6.62;49.81;100427.94;3438814;28;20060;-77
2021/11/17 10:39:47;;;;;;;7.38;4.15;;;;;;;6.61;49.71;100436.88;3441705;28;20041;-76
2021/11/17 10:41:31;;;;;;;4.57;3.30;;;;;;;6.61;49.68;100431.56;3439884;28;20050;-74
2021/11/17 10:43:25;;;;;;;4.90;3.53;;;;;;;6.63;49.83;100435.72;3437228;28;20030;-75
2021/11/17 10:45:11;;;;;;;6.13;3.20;;;;;;;6.63;49.60;100432.25;3436870;28;20381;-76
2021/11/17 10:46:59;;;;;;;5.03;3.40;;;;;;;6.63;49.63;100435.72;3440305;28;20087;-74
2021/11/17 10:49:06;;;;;;;8.68;3.38;;;;;;;6.71;49.66;100437.63;3439511;28;20042;-74
2021/11/17 10:50:47;;;;;;;13.05;3.92;;;;;;;6.67;49.61;100428.34;3439700;28;20069;-73
2021/11/17 10:52:51;;;;;;;5.22;2.97;;;;;;;6.71;49.45;100432.31;3419106;28;20039;-74
2021/11/17 10:54:36;;;;;;;7.50;3.45;;;;;;;6.67;49.40;100425.69;3436864;28;20095;-74
2021/11/17 10:56:21;;;;;;;12.90;3.30;;;;;;;6.64;49.44;100429.47;3434690;28;20093;-74
2021/11/17 10:58:04;;;;;;;6.10;3.55;;;;;;;6.65;49.34;100430.28;3436948;28;20600;-74
2021/11/17 10:59:47;;;;;;;6.15;3.45;;;;;;;6.63;49.53;100427.78;3436899;28;20137;-73
2021/11/17 11:01:41;;;;;;;21.10;4.82;;;;;;;6.69;49.57;100427.19;3424613;28;20125;-73
2021/11/17 11:03:22;;;;;;;6.90;4.22;;;;;;;6.68;49.53;100432.63;3437534;28;20129;-73
2021/11/17 11:05:06;;;;;;;6.85;3.63;;;;;;;6.70;49.56;100430.66;3434050;28;20042;-74
2021/11/17 11:07:06;;;;;;;4.65;2.83;;;;;;;6.73;49.54;100425.91;3434430;28;20066;-73
2021/11/17 11:09:12;;;;;;;5.75;2.80;;;;;;;6.78;49.49;100423.63;3433800;28;20050;-75
2021/11/17 11:10:56;;;;;;;7.85;3.65;;;;;;;6.73;49.45;100423.25;3412126;28;20074;-74